Portada
METAR-TAF:

METAR-TAF

Aeroports :

Anderson, Carolina del Sud, Estats Units d'Amèrica

latitud: 34-29-52N, longitud: 082-42-35W, altitud: 238 m

Observació

L'informe es va fer fa 1 hora i 8 minuts, a les 17:56 UTC
Vent 12 kt del Sud-Oest
Temperatura 28°C
Humitat 51%
Pressió 1022 hPa
Visibilitat: 16.1 km
Núvols disperses a una alçada de 3800 ft

METAR: KAND 021756Z AUTO 22012KT 10SM SCT038 28/17 A3018 RMK AO2 SLP213 T02780172 10278 20183 58018

Hora: 15:04 (19:04 UTC)

Pronòstic

L'informe es va fer fa 1 hora i 25 minuts, a les 17:39 UTC
Pronòstic vàlid del 02 a les 18 UTC al 03 a les 18 UTC
Vent 9 kt del Sud-Oest
Visibilitat: 10 km
Cel clar
A partir de les 03 a les 0000 UTC
Vent 4 kt del Sud/Sud-Oest
Visibilitat: 10 km
Escasses núvols a una alçada de 25000 ft
A partir de les 03 a les 1400 UTC
Vent 7 kt del Oest/Sud-Oest
Visibilitat: 10 km
Escasses núvols a una alçada de 25000 ft

TAF: KAND 021739Z 0218/0318 23009KT P6SM SKC FM030000 21004KT P6SM FEW250 FM031400 25007KT P6SM FEW250

Observacions i pronòstics meteorològics de més de 4000 aeroports (METAR i TAF).

Les estacions disponibles són els punts grocs i vermells al mapa.

Posi el ratolí al punt desitjat per veure el nom de l'estació.

Feu clic per veure les observacions i els pronòstics meteorològics.

Per canviar el mapa: feu clic els botons verds amb una creu de color negre per apropar; al botó verd amb un guió per allunyar la imatge; o en les fletxes verdes per a mapes adjacents.


METAR-TAF: